sensor_id;sensor_type;location;lat;lon;timestamp;pressure;altitude;pressure_sealevel;temperature;humidity
83716;BME280;73698;51.138;6.950;2023-12-29T00:00:17;100621.22;;;9.70;70.10
83716;BME280;73698;51.138;6.950;2023-12-29T00:02:42;100623.03;;;9.69;70.14
83716;BME280;73698;51.138;6.950;2023-12-29T00:05:07;100614.78;;;9.72;70.75
83716;BME280;73698;51.138;6.950;2023-12-29T00:07:33;100616.31;;;9.76;69.21
83716;BME280;73698;51.138;6.950;2023-12-29T00:09:59;100610.06;;;9.76;70.51
83716;BME280;73698;51.138;6.950;2023-12-29T00:12:24;100605.25;;;9.81;69.67
83716;BME280;73698;51.138;6.950;2023-12-29T00:14:50;100595.19;;;9.85;69.15
83716;BME280;73698;51.138;6.950;2023-12-29T00:17:15;100594.75;;;9.91;69.74
83716;BME280;73698;51.138;6.950;2023-12-29T00:19:40;100603.28;;;9.97;69.25
83716;BME280;73698;51.138;6.950;2023-12-29T00:22:06;100605.56;;;10.03;69.72
83716;BME280;73698;51.138;6.950;2023-12-29T00:24:31;100590.19;;;10.06;69.68
83716;BME280;73698;51.138;6.950;2023-12-29T00:26:57;100591.34;;;10.01;69.31
83716;BME280;73698;51.138;6.950;2023-12-29T00:29:24;100586.97;;;10.00;69.91
83716;BME280;73698;51.138;6.950;2023-12-29T00:31:49;100593.38;;;9.98;69.24
83716;BME280;73698;51.138;6.950;2023-12-29T00:34:15;100592.31;;;10.00;69.11
83716;BME280;73698;51.138;6.950;2023-12-29T00:36:40;100590.28;;;10.04;69.56
83716;BME280;73698;51.138;6.950;2023-12-29T00:39:05;100590.19;;;10.06;68.99
83716;BME280;73698;51.138;6.950;2023-12-29T00:41:32;100593.72;;;10.06;68.67
83716;BME280;73698;51.138;6.950;2023-12-29T00:43:57;100587.50;;;10.06;69.61
83716;BME280;73698;51.138;6.950;2023-12-29T00:46:22;100581.59;;;10.00;69.97
83716;BME280;73698;51.138;6.950;2023-12-29T00:48:48;100583.19;;;10.03;70.04
83716;BME280;73698;51.138;6.950;2023-12-29T00:51:13;100572.03;;;10.09;68.72
83716;BME280;73698;51.138;6.950;2023-12-29T00:53:39;100566.47;;;10.12;68.93
83716;BME280;73698;51.138;6.950;2023-12-29T00:56:10;100572.38;;;10.17;68.67
83716;BME280;73698;51.138;6.950;2023-12-29T00:58:36;100584.81;;;10.18;69.29
83716;BME280;73698;51.138;6.950;2023-12-29T01:01:01;100566.13;;;10.17;68.72
83716;BME280;73698;51.138;6.950;2023-12-29T01:03:26;100569.59;;;10.19;68.40
83716;BME280;73698;51.138;6.950;2023-12-29T01:05:52;100570.44;;;10.19;68.65
83716;BME280;73698;51.138;6.950;2023-12-29T01:08:17;100570.31;;;10.21;69.31
83716;BME280;73698;51.138;6.950;2023-12-29T01:10:42;100556.25;;;10.17;68.44
83716;BME280;73698;51.138;6.950;2023-12-29T01:13:08;100556.03;;;10.20;68.74
83716;BME280;73698;51.138;6.950;2023-12-29T01:15:33;100556.16;;;10.19;68.88
83716;BME280;73698;51.138;6.950;2023-12-29T01:17:58;100555.75;;;10.25;68.85
83716;BME280;73698;51.138;6.950;2023-12-29T01:20:24;100539.78;;;10.22;69.28
83716;BME280;73698;51.138;6.950;2023-12-29T01:22:49;100540.03;;;10.19;69.10
83716;BME280;73698;51.138;6.950;2023-12-29T01:25:15;100529.94;;;10.22;68.68
83716;BME280;73698;51.138;6.950;2023-12-29T01:27:40;100529.94;;;10.22;68.36
83716;BME280;73698;51.138;6.950;2023-12-29T01:30:06;100531.66;;;10.23;68.38
83716;BME280;73698;51.138;6.950;2023-12-29T01:32:32;100540.56;;;10.24;69.42
83716;BME280;73698;51.138;6.950;2023-12-29T01:34:57;100536.03;;;10.24;68.69
83716;BME280;73698;51.138;6.950;2023-12-29T01:37:23;100545.28;;;10.20;69.28
83716;BME280;73698;51.138;6.950;2023-12-29T01:39:48;100537.03;;;10.23;69.14
83716;BME280;73698;51.138;6.950;2023-12-29T01:42:13;100537.03;;;10.23;69.27
83716;BME280;73698;51.138;6.950;2023-12-29T01:44:39;100531.97;;;10.19;68.62
83716;BME280;73698;51.138;6.950;2023-12-29T01:47:15;100533.88;;;10.17;68.84
83716;BME280;73698;51.138;6.950;2023-12-29T01:49:44;100542.16;;;10.14;69.41
83716;BME280;73698;51.138;6.950;2023-12-29T01:52:10;100537.75;;;10.13;70.14
83716;BME280;73698;51.138;6.950;2023-12-29T01:54:36;100542.28;;;10.12;70.59
83716;BME280;73698;51.138;6.950;2023-12-29T01:57:06;100539.38;;;10.15;70.37
83716;BME280;73698;51.138;6.950;2023-12-29T01:59:34;100532.50;;;10.11;70.53
83716;BME280;73698;51.138;6.950;2023-12-29T02:02:01;100518.94;;;10.13;69.96
83716;BME280;73698;51.138;6.950;2023-12-29T02:04:28;100530.47;;;10.15;69.90
83716;BME280;73698;51.138;6.950;2023-12-29T02:06:54;100523.03;;;10.18;69.42
83716;BME280;73698;51.138;6.950;2023-12-29T02:09:20;100530.47;;;10.15;69.78
83716;BME280;73698;51.138;6.950;2023-12-29T02:11:46;100514.34;;;10.15;70.26
83716;BME280;73698;51.138;6.950;2023-12-29T02:14:12;100525.72;;;10.18;69.83
83716;BME280;73698;51.138;6.950;2023-12-29T02:16:53;100516.59;;;10.21;69.97
83716;BME280;73698;51.138;6.950;2023-12-29T02:19:40;100514.97;;;10.18;70.32
83716;BME280;73698;51.138;6.950;2023-12-29T02:22:07;100506.28;;;10.15;70.31
83716;BME280;73698;51.138;6.950;2023-12-29T02:24:34;100516.38;;;10.11;70.29
83716;BME280;73698;51.138;6.950;2023-12-29T02:27:41;100505.84;;;10.08;70.22
83716;BME280;73698;51.138;6.950;2023-12-29T02:30:37;100508.84;;;10.03;73.07
83716;BME280;73698;51.138;6.950;2023-12-29T02:33:09;100501.00;;;10.00;73.06
83716;BME280;73698;51.138;6.950;2023-12-29T02:35:39;100510.13;;;9.98;73.96
83716;BME280;73698;51.138;6.950;2023-12-29T02:38:06;100513.31;;;9.90;73.43
83716;BME280;73698;51.138;6.950;2023-12-29T02:40:32;100510.75;;;9.89;74.41
83716;BME280;73698;51.138;6.950;2023-12-29T02:42:57;100509.00;;;9.88;74.62
83716;BME280;73698;51.138;6.950;2023-12-29T02:45:23;100500.41;;;9.83;75.97
83716;BME280;73698;51.138;6.950;2023-12-29T02:47:48;100495.69;;;9.73;75.80
83716;BME280;73698;51.138;6.950;2023-12-29T02:50:14;100495.03;;;9.70;75.46
83716;BME280;73698;51.138;6.950;2023-12-29T02:52:40;100503.94;;;9.70;76.14
83716;BME280;73698;51.138;6.950;2023-12-29T02:55:05;100508.34;;;9.71;76.29
83716;BME280;73698;51.138;6.950;2023-12-29T02:57:31;100503.53;;;9.76;75.52
83716;BME280;73698;51.138;6.950;2023-12-29T02:59:56;100496.34;;;9.77;75.49
83716;BME280;73698;51.138;6.950;2023-12-29T03:02:22;100492.69;;;9.78;74.68
83716;BME280;73698;51.138;6.950;2023-12-29T03:04:48;100494.31;;;9.81;74.91
83716;BME280;73698;51.138;6.950;2023-12-29T03:07:13;100486.59;;;9.89;74.42
83716;BME280;73698;51.138;6.950;2023-12-29T03:09:39;100487.31;;;9.91;74.81
83716;BME280;73698;51.138;6.950;2023-12-29T03:12:05;100483.91;;;9.89;74.35
83716;BME280;73698;51.138;6.950;2023-12-29T03:14:31;100476.69;;;9.89;74.67
83716;BME280;73698;51.138;6.950;2023-12-29T03:16:56;100469.63;;;9.88;75.12
83716;BME280;73698;51.138;6.950;2023-12-29T03:19:22;100465.84;;;9.91;74.42
83716;BME280;73698;51.138;6.950;2023-12-29T03:21:48;100480.03;;;9.93;74.25
83716;BME280;73698;51.138;6.950;2023-12-29T03:24:13;100476.03;;;9.98;74.44
83716;BME280;73698;51.138;6.950;2023-12-29T03:26:38;100471.66;;;9.97;74.44
83716;BME280;73698;51.138;6.950;2023-12-29T03:29:04;100462.81;;;9.95;74.32
83716;BME280;73698;51.138;6.950;2023-12-29T03:31:29;100451.03;;;9.98;73.53
83716;BME280;73698;51.138;6.950;2023-12-29T03:33:55;100457.91;;;10.02;73.74
83716;BME280;73698;51.138;6.950;2023-12-29T03:36:20;100458.09;;;9.99;73.78
83716;BME280;73698;51.138;6.950;2023-12-29T03:38:46;100458.75;;;10.02;73.10
83716;BME280;73698;51.138;6.950;2023-12-29T03:41:11;100472.41;;;9.99;74.45
83716;BME280;73698;51.138;6.950;2023-12-29T03:43:36;100462.63;;;9.98;73.55
83716;BME280;73698;51.138;6.950;2023-12-29T03:46:02;100470.47;;;10.01;73.28
83716;BME280;73698;51.138;6.950;2023-12-29T03:48:27;100471.31;;;10.02;73.18
83716;BME280;73698;51.138;6.950;2023-12-29T03:50:53;100460.59;;;10.02;73.62
83716;BME280;73698;51.138;6.950;2023-12-29T03:53:18;100448.78;;;10.05;73.20
83716;BME280;73698;51.138;6.950;2023-12-29T03:55:44;100464.91;;;10.05;73.61
83716;BME280;73698;51.138;6.950;2023-12-29T03:58:10;100446.53;;;10.11;73.13
83716;BME280;73698;51.138;6.950;2023-12-29T04:00:36;100452.75;;;10.12;73.01
83716;BME280;73698;51.138;6.950;2023-12-29T04:03:01;100466.94;;;10.14;72.89
83716;BME280;73698;51.138;6.950;2023-12-29T04:05:27;100456.19;;;10.14;72.89
83716;BME280;73698;51.138;6.950;2023-12-29T04:07:52;100441.81;;;10.15;72.99
83716;BME280;73698;51.138;6.950;2023-12-29T04:10:17;100453.63;;;10.12;72.72
83716;BME280;73698;51.138;6.950;2023-12-29T04:12:43;100451.66;;;10.14;72.97
83716;BME280;73698;51.138;6.950;2023-12-29T04:15:09;100449.94;;;10.13;73.24
83716;BME280;73698;51.138;6.950;2023-12-29T04:17:34;100445.88;;;10.08;73.54
83716;BME280;73698;51.138;6.950;2023-12-29T04:20:00;100429.13;;;10.04;73.34
83716;BME280;73698;51.138;6.950;2023-12-29T04:22:25;100437.91;;;10.06;73.77
83716;BME280;73698;51.138;6.950;2023-12-29T04:24:51;100441.56;;;10.05;73.37
83716;BME280;73698;51.138;6.950;2023-12-29T04:27:17;100446.94;;;10.05;73.25
83716;BME280;73698;51.138;6.950;2023-12-29T04:29:43;100458.66;;;10.04;73.41
83716;BME280;73698;51.138;6.950;2023-12-29T04:32:09;100470.47;;;10.01;73.62
83716;BME280;73698;51.138;6.950;2023-12-29T04:34:34;100468.44;;;10.05;73.83
83716;BME280;73698;51.138;6.950;2023-12-29T04:37:00;100476.38;;;10.07;72.91
83716;BME280;73698;51.138;6.950;2023-12-29T04:39:25;100476.38;;;10.07;73.37
83716;BME280;73698;51.138;6.950;2023-12-29T04:41:51;100469.09;;;10.09;73.18
83716;BME280;73698;51.138;6.950;2023-12-29T04:44:16;100469.09;;;10.09;73.37
83716;BME280;73698;51.138;6.950;2023-12-29T04:46:41;100474.47;;;10.09;72.91
83716;BME280;73698;51.138;6.950;2023-12-29T04:49:07;100472.94;;;10.05;73.29
83716;BME280;73698;51.138;6.950;2023-12-29T04:51:33;100466.94;;;10.01;73.47
83716;BME280;73698;51.138;6.950;2023-12-29T04:53:59;100468.19;;;9.95;73.53
83716;BME280;73698;51.138;6.950;2023-12-29T04:56:24;100466.69;;;9.91;73.56
83716;BME280;73698;51.138;6.950;2023-12-29T04:58:51;100479.91;;;9.94;73.17
83716;BME280;73698;51.138;6.950;2023-12-29T05:01:17;100480.88;;;9.93;73.08
83716;BME280;73698;51.138;6.950;2023-12-29T05:03:42;100482.50;;;9.96;73.66
83716;BME280;73698;51.138;6.950;2023-12-29T05:06:07;100487.34;;;10.03;73.14
83716;BME280;73698;51.138;6.950;2023-12-29T05:08:33;100494.75;;;10.00;73.27
83716;BME280;73698;51.138;6.950;2023-12-29T05:11:00;100507.34;;;9.99;73.69
83716;BME280;73698;51.138;6.950;2023-12-29T05:13:25;100489.47;;;9.98;73.22
83716;BME280;73698;51.138;6.950;2023-12-29T05:15:51;100488.53;;;9.99;73.56
83716;BME280;73698;51.138;6.950;2023-12-29T05:18:16;100491.22;;;9.99;73.19
83716;BME280;73698;51.138;6.950;2023-12-29T05:20:41;100486.72;;;10.00;72.92
83716;BME280;73698;51.138;6.950;2023-12-29T05:23:07;100477.03;;;9.97;73.20
83716;BME280;73698;51.138;6.950;2023-12-29T05:25:32;100476.38;;;9.94;72.83
83716;BME280;73698;51.138;6.950;2023-12-29T05:27:58;100467.66;;;9.90;73.85
83716;BME280;73698;51.138;6.950;2023-12-29T05:30:23;100484.97;;;9.86;73.22
83716;BME280;73698;51.138;6.950;2023-12-29T05:32:48;100477.34;;;9.80;74.04
83716;BME280;73698;51.138;6.950;2023-12-29T05:35:14;100469.16;;;9.82;73.81
83716;BME280;73698;51.138;6.950;2023-12-29T05:37:39;100481.75;;;9.81;73.80
83716;BME280;73698;51.138;6.950;2023-12-29T05:40:05;100481.09;;;9.77;73.82
83716;BME280;73698;51.138;6.950;2023-12-29T05:42:31;100496.53;;;9.74;74.12
83716;BME280;73698;51.138;6.950;2023-12-29T05:44:56;100496.84;;;9.69;73.89
83716;BME280;73698;51.138;6.950;2023-12-29T05:47:21;100486.19;;;9.68;73.67
83716;BME280;73698;51.138;6.950;2023-12-29T05:49:47;100489.75;;;9.68;74.02
83716;BME280;73698;51.138;6.950;2023-12-29T05:52:12;100496.66;;;9.72;73.04
83716;BME280;73698;51.138;6.950;2023-12-29T05:54:38;100491.16;;;9.74;73.33
83716;BME280;73698;51.138;6.950;2023-12-29T05:57:03;100478.72;;;9.73;73.43
83716;BME280;73698;51.138;6.950;2023-12-29T05:59:29;100483.44;;;9.69;73.50
83716;BME280;73698;51.138;6.950;2023-12-29T06:01:54;100482.56;;;9.69;72.76
83716;BME280;73698;51.138;6.950;2023-12-29T06:04:21;100479.13;;;9.67;72.99
83716;BME280;73698;51.138;6.950;2023-12-29T06:06:46;100484.59;;;9.65;73.06
83716;BME280;73698;51.138;6.950;2023-12-29T06:09:12;100482.97;;;9.63;73.04
83716;BME280;73698;51.138;6.950;2023-12-29T06:11:37;100498.53;;;9.58;73.39
83716;BME280;73698;51.138;6.950;2023-12-29T06:14:03;100493.84;;;9.61;73.27
83716;BME280;73698;51.138;6.950;2023-12-29T06:16:29;100486.63;;;9.62;73.36
83716;BME280;73698;51.138;6.950;2023-12-29T06:18:56;100485.97;;;9.58;73.18
83716;BME280;73698;51.138;6.950;2023-12-29T06:21:21;100499.47;;;9.57;73.62
83716;BME280;73698;51.138;6.950;2023-12-29T06:23:47;100491.09;;;9.48;73.91
83716;BME280;73698;51.138;6.950;2023-12-29T06:26:17;100482.59;;;9.42;74.46
83716;BME280;73698;51.138;6.950;2023-12-29T06:28:43;100490.84;;;9.39;74.51
83716;BME280;73698;51.138;6.950;2023-12-29T06:31:09;100494.47;;;9.38;74.09
83716;BME280;73698;51.138;6.950;2023-12-29T06:33:34;100487.09;;;9.41;74.22
83716;BME280;73698;51.138;6.950;2023-12-29T06:36:00;100496.97;;;9.41;74.69
83716;BME280;73698;51.138;6.950;2023-12-29T06:38:26;100494.84;;;9.46;74.30
83716;BME280;73698;51.138;6.950;2023-12-29T06:40:51;100485.84;;;9.47;74.34
83716;BME280;73698;51.138;6.950;2023-12-29T06:43:16;100482.53;;;9.56;74.15
83716;BME280;73698;51.138;6.950;2023-12-29T06:45:42;100476.09;;;9.59;73.73
83716;BME280;73698;51.138;6.950;2023-12-29T06:48:07;100484.03;;;9.60;74.26
83716;BME280;73698;51.138;6.950;2023-12-29T06:50:33;100482.22;;;9.61;73.61
83716;BME280;73698;51.138;6.950;2023-12-29T06:52:58;100480.28;;;9.63;74.28
83716;BME280;73698;51.138;6.950;2023-12-29T06:55:25;100477.81;;;9.60;74.17
83716;BME280;73698;51.138;6.950;2023-12-29T06:57:50;100473.41;;;9.59;74.22
83716;BME280;73698;51.138;6.950;2023-12-29T07:00:16;100475.25;;;9.58;74.14
83716;BME280;73698;51.138;6.950;2023-12-29T07:02:42;100480.50;;;9.60;74.74
83716;BME280;73698;51.138;6.950;2023-12-29T07:05:07;100473.09;;;9.63;74.05
83716;BME280;73698;51.138;6.950;2023-12-29T07:07:34;100472.03;;;9.66;73.73
83716;BME280;73698;51.138;6.950;2023-12-29T07:10:00;100457.66;;;9.67;74.00
83716;BME280;73698;51.138;6.950;2023-12-29T07:12:25;100459.34;;;9.68;74.00
83716;BME280;73698;51.138;6.950;2023-12-29T07:14:51;100458.69;;;9.64;74.08
83716;BME280;73698;51.138;6.950;2023-12-29T07:17:17;100462.16;;;9.66;74.65
83716;BME280;73698;51.138;6.950;2023-12-29T07:19:42;100464.97;;;9.65;74.76
83716;BME280;73698;51.138;6.950;2023-12-29T07:22:08;100470.31;;;9.65;74.84
83716;BME280;73698;51.138;6.950;2023-12-29T07:24:34;100467.66;;;9.65;74.88
83716;BME280;73698;51.138;6.950;2023-12-29T07:27:00;100462.34;;;9.63;75.05
83716;BME280;73698;51.138;6.950;2023-12-29T07:29:26;100463.88;;;9.67;74.63
83716;BME280;73698;51.138;6.950;2023-12-29T07:31:52;100463.97;;;9.66;74.63
83716;BME280;73698;51.138;6.950;2023-12-29T07:34:17;100458.81;;;9.63;74.48
83716;BME280;73698;51.138;6.950;2023-12-29T07:36:43;100465.03;;;9.63;74.87
83716;BME280;73698;51.138;6.950;2023-12-29T07:39:08;100469.25;;;9.67;74.80
83716;BME280;73698;51.138;6.950;2023-12-29T07:41:39;100468.19;;;9.70;73.94
83716;BME280;73698;51.138;6.950;2023-12-29T07:44:05;100482.47;;;9.70;74.46
83716;BME280;73698;51.138;6.950;2023-12-29T07:46:30;100465.50;;;9.70;75.00
83716;BME280;73698;51.138;6.950;2023-12-29T07:48:56;100470.75;;;9.71;74.99
83716;BME280;73698;51.138;6.950;2023-12-29T07:51:21;100475.06;;;9.74;75.22
83716;BME280;73698;51.138;6.950;2023-12-29T07:53:47;100473.22;;;9.74;76.60
83716;BME280;73698;51.138;6.950;2023-12-29T07:56:12;100470.88;;;9.70;78.65
83716;BME280;73698;51.138;6.950;2023-12-29T07:58:37;100474.16;;;9.61;78.73
83716;BME280;73698;51.138;6.950;2023-12-29T08:01:03;100471.25;;;9.51;79.40
83716;BME280;73698;51.138;6.950;2023-12-29T08:03:28;100474.44;;;9.43;80.27
83716;BME280;73698;51.138;6.950;2023-12-29T08:05:54;100472.28;;;9.36;81.36
83716;BME280;73698;51.138;6.950;2023-12-29T08:08:19;100475.16;;;9.33;81.74
83716;BME280;73698;51.138;6.950;2023-12-29T08:10:45;100490.03;;;9.24;83.07
83716;BME280;73698;51.138;6.950;2023-12-29T08:13:10;100488.41;;;9.21;82.87
83716;BME280;73698;51.138;6.950;2023-12-29T08:15:35;100495.06;;;9.16;83.15
83716;BME280;73698;51.138;6.950;2023-12-29T08:18:03;100499.84;;;9.11;83.03
83716;BME280;73698;51.138;6.950;2023-12-29T08:20:28;100494.59;;;9.09;83.72
83716;BME280;73698;51.138;6.950;2023-12-29T08:22:54;100495.84;;;9.03;84.34
83716;BME280;73698;51.138;6.950;2023-12-29T08:25:19;100491.44;;;9.02;85.02
83716;BME280;73698;51.138;6.950;2023-12-29T08:27:44;100511.28;;;9.00;85.74
83716;BME280;73698;51.138;6.950;2023-12-29T08:30:10;100508.59;;;9.00;86.34
83716;BME280;73698;51.138;6.950;2023-12-29T08:32:36;100501.59;;;8.97;86.23
83716;BME280;73698;51.138;6.950;2023-12-29T08:35:01;100504.41;;;8.96;86.43
83716;BME280;73698;51.138;6.950;2023-12-29T08:37:26;100500.75;;;8.97;86.96
83716;BME280;73698;51.138;6.950;2023-12-29T08:39:52;100502.66;;;8.95;86.88
83716;BME280;73698;51.138;6.950;2023-12-29T08:42:17;100506.41;;;8.92;87.48
83716;BME280;73698;51.138;6.950;2023-12-29T08:44:43;100505.56;;;8.92;87.79
83716;BME280;73698;51.138;6.950;2023-12-29T08:47:09;100504.00;;;8.88;88.09
83716;BME280;73698;51.138;6.950;2023-12-29T08:49:38;100502.41;;;8.85;88.34
83716;BME280;73698;51.138;6.950;2023-12-29T08:52:04;100504.97;;;8.87;87.97
83716;BME280;73698;51.138;6.950;2023-12-29T08:54:29;100505.81;;;8.87;88.25
83716;BME280;73698;51.138;6.950;2023-12-29T08:56:54;100509.28;;;8.89;88.13
83716;BME280;73698;51.138;6.950;2023-12-29T08:59:20;100503.16;;;8.87;88.76
83716;BME280;73698;51.138;6.950;2023-12-29T09:01:45;100504.91;;;8.88;88.57
83716;BME280;73698;51.138;6.950;2023-12-29T09:04:10;100512.16;;;8.86;88.71
83716;BME280;73698;51.138;6.950;2023-12-29T09:06:36;100520.38;;;8.83;89.03
83716;BME280;73698;51.138;6.950;2023-12-29T09:09:01;100521.53;;;8.79;89.82
83716;BME280;73698;51.138;6.950;2023-12-29T09:11:27;100527.03;;;8.77;89.91
83716;BME280;73698;51.138;6.950;2023-12-29T09:13:52;100538.72;;;8.76;89.94
83716;BME280;73698;51.138;6.950;2023-12-29T09:16:18;100530.66;;;8.76;89.82
83716;BME280;73698;51.138;6.950;2023-12-29T09:18:43;100533.44;;;8.75;89.68
83716;BME280;73698;51.138;6.950;2023-12-29T09:21:08;100540.59;;;8.74;90.01
83716;BME280;73698;51.138;6.950;2023-12-29T09:23:34;100536.22;;;8.73;90.13
83716;BME280;73698;51.138;6.950;2023-12-29T09:26:02;100533.44;;;8.75;90.33
83716;BME280;73698;51.138;6.950;2023-12-29T09:28:28;100527.88;;;8.78;90.60
83716;BME280;73698;51.138;6.950;2023-12-29T09:30:53;100526.16;;;8.77;90.42
83716;BME280;73698;51.138;6.950;2023-12-29T09:33:18;100509.97;;;8.78;90.44
83716;BME280;73698;51.138;6.950;2023-12-29T09:35:45;100515.13;;;8.82;90.35
83716;BME280;73698;51.138;6.950;2023-12-29T09:38:11;100514.84;;;8.86;90.02
83716;BME280;73698;51.138;6.950;2023-12-29T09:40:37;100509.28;;;8.89;90.70
83716;BME280;73698;51.138;6.950;2023-12-29T09:43:03;100498.56;;;8.89;90.37
83716;BME280;73698;51.138;6.950;2023-12-29T09:45:33;100505.56;;;8.92;90.33
83716;BME280;73698;51.138;6.950;2023-12-29T09:48:01;100509.75;;;8.96;89.63
83716;BME280;73698;51.138;6.950;2023-12-29T09:50:28;100513.38;;;8.95;90.16
83716;BME280;73698;51.138;6.950;2023-12-29T09:52:53;100506.19;;;8.95;90.11
83716;BME280;73698;51.138;6.950;2023-12-29T09:55:21;100502.47;;;8.98;89.83
83716;BME280;73698;51.138;6.950;2023-12-29T09:57:47;100503.31;;;8.98;90.05
83716;BME280;73698;51.138;6.950;2023-12-29T10:00:15;100494.13;;;9.02;90.00
83716;BME280;73698;51.138;6.950;2023-12-29T10:02:45;100490.50;;;9.03;89.90
83716;BME280;73698;51.138;6.950;2023-12-29T10:05:11;100494.88;;;9.04;89.71
83716;BME280;73698;51.138;6.950;2023-12-29T10:07:37;100492.00;;;9.08;89.56
83716;BME280;73698;51.138;6.950;2023-12-29T10:10:04;100496.97;;;9.14;89.19
83716;BME280;73698;51.138;6.950;2023-12-29T10:12:32;100482.19;;;9.21;89.11
83716;BME280;73698;51.138;6.950;2023-12-29T10:17:48;100490.03;;;9.24;88.81
83716;BME280;73698;51.138;6.950;2023-12-29T10:23:06;100493.59;;;9.24;88.03
83716;BME280;73698;51.138;6.950;2023-12-29T10:25:33;100497.97;;;9.25;88.40
83716;BME280;73698;51.138;6.950;2023-12-29T10:27:59;100492.22;;;9.32;87.71
83716;BME280;73698;51.138;6.950;2023-12-29T10:30:26;100495.75;;;9.32;88.21
83716;BME280;73698;51.138;6.950;2023-12-29T10:32:52;100495.38;;;9.38;88.47
83716;BME280;73698;51.138;6.950;2023-12-29T10:35:20;100488.06;;;9.40;88.63
83716;BME280;73698;51.138;6.950;2023-12-29T10:37:45;100493.22;;;9.43;88.21
83716;BME280;73698;51.138;6.950;2023-12-29T10:40:17;100493.34;;;9.42;87.78
83716;BME280;73698;51.138;6.950;2023-12-29T10:42:56;100483.22;;;9.45;87.61
83716;BME280;73698;51.138;6.950;2023-12-29T10:45:27;100492.25;;;9.44;87.79
83716;BME280;73698;51.138;6.950;2023-12-29T10:47:53;100490.22;;;9.48;87.22
83716;BME280;73698;51.138;6.950;2023-12-29T10:50:18;100491.66;;;9.53;87.38
83716;BME280;73698;51.138;6.950;2023-12-29T10:52:44;100485.22;;;9.56;86.87
83716;BME280;73698;51.138;6.950;2023-12-29T10:55:13;100476.09;;;9.59;87.03
83716;BME280;73698;51.138;6.950;2023-12-29T10:57:39;100476.63;;;9.64;86.91
83716;BME280;73698;51.138;6.950;2023-12-29T11:00:07;100489.47;;;9.73;86.80
83716;BME280;73698;51.138;6.950;2023-12-29T11:02:37;100481.63;;;9.83;85.56
83716;BME280;73698;51.138;6.950;2023-12-29T11:05:07;100485.72;;;9.88;85.74
83716;BME280;73698;51.138;6.950;2023-12-29T11:07:41;100493.78;;;10.01;84.56
83716;BME280;73698;51.138;6.950;2023-12-29T11:10:08;100476.28;;;10.08;84.45
83716;BME280;73698;51.138;6.950;2023-12-29T11:12:35;100481.88;;;10.18;84.79
83716;BME280;73698;51.138;6.950;2023-12-29T11:15:03;100489.50;;;10.24;83.99
83716;BME280;73698;51.138;6.950;2023-12-29T11:17:34;100488.03;;;10.33;83.99
83716;BME280;73698;51.138;6.950;2023-12-29T11:20:02;100492.66;;;10.31;83.75
83716;BME280;73698;51.138;6.950;2023-12-29T11:22:30;100476.41;;;10.32;83.36
83716;BME280;73698;51.138;6.950;2023-12-29T11:24:56;100489.13;;;10.30;83.13
83716;BME280;73698;51.138;6.950;2023-12-29T11:27:27;100484.69;;;10.29;82.41
83716;BME280;73698;51.138;6.950;2023-12-29T11:29:55;100478.47;;;10.29;83.00
83716;BME280;73698;51.138;6.950;2023-12-29T11:32:32;100479.44;;;10.27;82.64
83716;BME280;73698;51.138;6.950;2023-12-29T11:35:18;100476.84;;;10.26;83.06
83716;BME280;73698;51.138;6.950;2023-12-29T11:43:36;100464.38;;;10.25;82.79
83716;BME280;73698;51.138;6.950;2023-12-29T11:46:02;100468.13;;;10.22;82.26
83716;BME280;73698;51.138;6.950;2023-12-29T11:48:55;100471.47;;;10.26;83.31
83716;BME280;73698;51.138;6.950;2023-12-29T11:51:44;100461.59;;;10.26;81.92
83716;BME280;73698;51.138;6.950;2023-12-29T11:54:10;100462.13;;;10.32;80.92
83716;BME280;73698;51.138;6.950;2023-12-29T11:56:48;100458.38;;;10.34;81.53
83716;BME280;73698;51.138;6.950;2023-12-29T12:01:41;100452.75;;;10.37;81.09
83716;BME280;73698;51.138;6.950;2023-12-29T12:09:38;100442.13;;;10.23;82.81
83716;BME280;73698;51.138;6.950;2023-12-29T12:12:04;100453.94;;;10.20;82.16
83716;BME280;73698;51.138;6.950;2023-12-29T12:14:52;100459.09;;;10.23;83.43
83716;BME280;73698;51.138;6.950;2023-12-29T12:17:37;100457.59;;;10.19;82.71
83716;BME280;73698;51.138;6.950;2023-12-29T12:20:09;100458.31;;;10.21;82.66
83716;BME280;73698;51.138;6.950;2023-12-29T12:22:35;100459.09;;;10.23;82.55
83716;BME280;73698;51.138;6.950;2023-12-29T12:25:02;100449.03;;;10.27;82.83
83716;BME280;73698;51.138;6.950;2023-12-29T12:27:34;100449.03;;;10.27;82.02
83716;BME280;73698;51.138;6.950;2023-12-29T12:30:17;100453.84;;;10.35;81.87
83716;BME280;73698;51.138;6.950;2023-12-29T12:32:43;100449.44;;;10.34;82.64
83716;BME280;73698;51.138;6.950;2023-12-29T12:35:18;100450.31;;;10.34;82.58
83716;BME280;73698;51.138;6.950;2023-12-29T12:37:43;100449.97;;;10.39;81.69
83716;BME280;73698;51.138;6.950;2023-12-29T12:40:26;100441.16;;;10.37;81.61
83716;BME280;73698;51.138;6.950;2023-12-29T12:42:52;100443.09;;;10.35;81.53
83716;BME280;73698;51.138;6.950;2023-12-29T12:45:20;100435.03;;;10.35;82.28
83716;BME280;73698;51.138;6.950;2023-12-29T12:47:54;100429.53;;;10.36;82.40
83716;BME280;73698;51.138;6.950;2023-12-29T12:50:25;100429.34;;;10.39;82.61
83716;BME280;73698;51.138;6.950;2023-12-29T12:52:51;100435.69;;;10.38;82.72
83716;BME280;73698;51.138;6.950;2023-12-29T12:55:18;100422.88;;;10.29;83.62
83716;BME280;73698;51.138;6.950;2023-12-29T12:57:44;100435.38;;;10.30;83.12
83716;BME280;73698;51.138;6.950;2023-12-29T13:00:10;100429.63;;;10.22;83.34
83716;BME280;73698;51.138;6.950;2023-12-29T13:02:36;100440.50;;;10.20;83.52
83716;BME280;73698;51.138;6.950;2023-12-29T13:05:02;100435.97;;;10.21;83.37
83716;BME280;73698;51.138;6.950;2023-12-29T13:07:34;100427.91;;;10.21;82.96
83716;BME280;73698;51.138;6.950;2023-12-29T13:10:01;100428.47;;;10.26;82.54
83716;BME280;73698;51.138;6.950;2023-12-29T13:12:27;100421.69;;;10.33;81.46